sensor_id;sensor_type;location;lat;lon;timestamp;P1;durP1;ratioP1;P2;durP2;ratioP2
15831;SDS011;8016;49.928;9.372;2023-05-29T00:00:18;5.10;;;3.27;;
15831;SDS011;8016;49.928;9.372;2023-05-29T00:02:45;5.00;;;3.40;;
15831;SDS011;8016;49.928;9.372;2023-05-29T00:05:11;5.70;;;3.20;;
15831;SDS011;8016;49.928;9.372;2023-05-29T00:07:38;4.70;;;3.07;;
15831;SDS011;8016;49.928;9.372;2023-05-29T00:10:07;4.50;;;3.20;;
15831;SDS011;8016;49.928;9.372;2023-05-29T00:12:33;6.57;;;3.37;;
15831;SDS011;8016;49.928;9.372;2023-05-29T00:14:59;7.30;;;3.70;;
15831;SDS011;8016;49.928;9.372;2023-05-29T00:17:25;6.53;;;3.30;;
15831;SDS011;8016;49.928;9.372;2023-05-29T00:19:51;5.43;;;3.47;;
15831;SDS011;8016;49.928;9.372;2023-05-29T00:22:17;5.60;;;2.97;;
15831;SDS011;8016;49.928;9.372;2023-05-29T00:24:44;5.87;;;3.60;;
15831;SDS011;8016;49.928;9.372;2023-05-29T00:27:10;6.13;;;3.33;;
15831;SDS011;8016;49.928;9.372;2023-05-29T00:29:36;4.97;;;3.83;;
15831;SDS011;8016;49.928;9.372;2023-05-29T00:32:03;7.17;;;3.00;;
15831;SDS011;8016;49.928;9.372;2023-05-29T00:34:30;7.13;;;3.50;;
15831;SDS011;8016;49.928;9.372;2023-05-29T00:36:56;6.97;;;4.27;;
15831;SDS011;8016;49.928;9.372;2023-05-29T00:39:22;5.63;;;2.90;;
15831;SDS011;8016;49.928;9.372;2023-05-29T00:41:48;6.23;;;3.40;;
15831;SDS011;8016;49.928;9.372;2023-05-29T00:44:20;4.70;;;3.40;;
15831;SDS011;8016;49.928;9.372;2023-05-29T00:46:47;5.80;;;3.17;;
15831;SDS011;8016;49.928;9.372;2023-05-29T00:49:14;5.60;;;3.43;;
15831;SDS011;8016;49.928;9.372;2023-05-29T00:51:40;4.23;;;3.27;;
15831;SDS011;8016;49.928;9.372;2023-05-29T00:54:07;5.70;;;3.20;;
15831;SDS011;8016;49.928;9.372;2023-05-29T00:56:34;5.77;;;3.70;;
15831;SDS011;8016;49.928;9.372;2023-05-29T00:59:00;3.80;;;3.17;;
15831;SDS011;8016;49.928;9.372;2023-05-29T01:01:26;4.27;;;3.50;;
15831;SDS011;8016;49.928;9.372;2023-05-29T01:03:55;6.50;;;3.40;;
15831;SDS011;8016;49.928;9.372;2023-05-29T01:06:22;5.27;;;3.23;;
15831;SDS011;8016;49.928;9.372;2023-05-29T01:08:48;5.40;;;3.43;;
15831;SDS011;8016;49.928;9.372;2023-05-29T01:11:31;6.67;;;3.70;;
15831;SDS011;8016;49.928;9.372;2023-05-29T01:14:04;3.37;;;3.07;;
15831;SDS011;8016;49.928;9.372;2023-05-29T01:16:55;5.53;;;3.07;;
15831;SDS011;8016;49.928;9.372;2023-05-29T01:19:29;4.20;;;3.20;;
15831;SDS011;8016;49.928;9.372;2023-05-29T01:22:03;5.23;;;3.43;;
15831;SDS011;8016;49.928;9.372;2023-05-29T01:27:03;5.03;;;3.57;;
15831;SDS011;8016;49.928;9.372;2023-05-29T01:29:32;4.67;;;3.27;;
15831;SDS011;8016;49.928;9.372;2023-05-29T01:31:59;4.97;;;3.37;;
15831;SDS011;8016;49.928;9.372;2023-05-29T01:34:26;7.97;;;4.10;;
15831;SDS011;8016;49.928;9.372;2023-05-29T01:36:52;6.17;;;3.27;;
15831;SDS011;8016;49.928;9.372;2023-05-29T01:39:19;5.17;;;3.57;;
15831;SDS011;8016;49.928;9.372;2023-05-29T01:41:46;4.87;;;3.20;;
15831;SDS011;8016;49.928;9.372;2023-05-29T01:44:13;6.70;;;3.70;;
15831;SDS011;8016;49.928;9.372;2023-05-29T01:46:39;5.37;;;3.40;;
15831;SDS011;8016;49.928;9.372;2023-05-29T01:49:06;4.40;;;3.07;;
15831;SDS011;8016;49.928;9.372;2023-05-29T01:51:32;4.97;;;3.40;;
15831;SDS011;8016;49.928;9.372;2023-05-29T01:53:58;3.87;;;3.27;;
15831;SDS011;8016;49.928;9.372;2023-05-29T01:56:25;5.57;;;3.50;;
15831;SDS011;8016;49.928;9.372;2023-05-29T01:58:52;5.20;;;3.20;;
15831;SDS011;8016;49.928;9.372;2023-05-29T02:01:19;5.90;;;3.40;;
15831;SDS011;8016;49.928;9.372;2023-05-29T02:03:45;7.17;;;3.33;;
15831;SDS011;8016;49.928;9.372;2023-05-29T02:06:11;5.40;;;3.63;;
15831;SDS011;8016;49.928;9.372;2023-05-29T02:08:37;5.20;;;3.47;;
15831;SDS011;8016;49.928;9.372;2023-05-29T02:11:03;7.00;;;3.37;;
15831;SDS011;8016;49.928;9.372;2023-05-29T02:13:29;5.07;;;3.53;;
15831;SDS011;8016;49.928;9.372;2023-05-29T02:15:55;4.30;;;3.50;;
15831;SDS011;8016;49.928;9.372;2023-05-29T02:18:21;4.50;;;3.40;;
15831;SDS011;8016;49.928;9.372;2023-05-29T02:20:47;6.30;;;4.00;;
15831;SDS011;8016;49.928;9.372;2023-05-29T02:23:13;5.37;;;3.27;;
15831;SDS011;8016;49.928;9.372;2023-05-29T02:25:40;5.53;;;3.90;;
15831;SDS011;8016;49.928;9.372;2023-05-29T02:28:06;6.30;;;3.87;;
15831;SDS011;8016;49.928;9.372;2023-05-29T02:30:32;4.57;;;2.93;;
15831;SDS011;8016;49.928;9.372;2023-05-29T02:32:58;5.00;;;3.20;;
15831;SDS011;8016;49.928;9.372;2023-05-29T02:35:24;6.07;;;3.70;;
15831;SDS011;8016;49.928;9.372;2023-05-29T02:37:50;4.77;;;3.53;;
15831;SDS011;8016;49.928;9.372;2023-05-29T02:40:17;7.10;;;3.37;;
15831;SDS011;8016;49.928;9.372;2023-05-29T02:42:43;6.23;;;3.00;;
15831;SDS011;8016;49.928;9.372;2023-05-29T02:45:09;6.00;;;3.50;;
15831;SDS011;8016;49.928;9.372;2023-05-29T02:47:35;5.77;;;3.63;;
15831;SDS011;8016;49.928;9.372;2023-05-29T02:50:01;3.87;;;3.00;;
15831;SDS011;8016;49.928;9.372;2023-05-29T02:52:27;4.10;;;3.30;;
15831;SDS011;8016;49.928;9.372;2023-05-29T02:54:55;4.37;;;3.37;;
15831;SDS011;8016;49.928;9.372;2023-05-29T02:57:21;5.97;;;3.43;;
15831;SDS011;8016;49.928;9.372;2023-05-29T02:59:47;7.20;;;3.60;;
15831;SDS011;8016;49.928;9.372;2023-05-29T03:02:13;4.60;;;3.50;;
15831;SDS011;8016;49.928;9.372;2023-05-29T03:04:39;4.77;;;3.60;;
15831;SDS011;8016;49.928;9.372;2023-05-29T03:07:05;5.90;;;3.63;;
15831;SDS011;8016;49.928;9.372;2023-05-29T03:09:31;6.03;;;3.63;;
15831;SDS011;8016;49.928;9.372;2023-05-29T03:11:58;5.63;;;3.67;;
15831;SDS011;8016;49.928;9.372;2023-05-29T03:14:26;8.70;;;4.17;;
15831;SDS011;8016;49.928;9.372;2023-05-29T03:16:52;4.80;;;3.40;;
15831;SDS011;8016;49.928;9.372;2023-05-29T03:19:18;4.47;;;3.33;;
15831;SDS011;8016;49.928;9.372;2023-05-29T03:21:44;5.67;;;3.30;;
15831;SDS011;8016;49.928;9.372;2023-05-29T03:24:10;6.87;;;3.47;;
15831;SDS011;8016;49.928;9.372;2023-05-29T03:26:38;5.63;;;3.60;;
15831;SDS011;8016;49.928;9.372;2023-05-29T03:29:04;5.10;;;3.37;;
15831;SDS011;8016;49.928;9.372;2023-05-29T03:31:30;7.03;;;4.47;;
15831;SDS011;8016;49.928;9.372;2023-05-29T03:33:57;4.70;;;3.13;;
15831;SDS011;8016;49.928;9.372;2023-05-29T03:36:23;6.17;;;3.63;;
15831;SDS011;8016;49.928;9.372;2023-05-29T03:38:49;5.80;;;3.93;;
15831;SDS011;8016;49.928;9.372;2023-05-29T03:41:15;5.23;;;3.20;;
15831;SDS011;8016;49.928;9.372;2023-05-29T03:43:41;4.80;;;3.30;;
15831;SDS011;8016;49.928;9.372;2023-05-29T03:46:07;4.93;;;3.27;;
15831;SDS011;8016;49.928;9.372;2023-05-29T03:48:33;6.80;;;4.40;;
15831;SDS011;8016;49.928;9.372;2023-05-29T03:50:59;5.23;;;3.07;;
15831;SDS011;8016;49.928;9.372;2023-05-29T03:53:25;4.23;;;3.20;;
15831;SDS011;8016;49.928;9.372;2023-05-29T03:55:51;4.17;;;3.37;;
15831;SDS011;8016;49.928;9.372;2023-05-29T03:58:17;5.60;;;3.40;;
15831;SDS011;8016;49.928;9.372;2023-05-29T04:00:43;4.93;;;3.40;;
15831;SDS011;8016;49.928;9.372;2023-05-29T04:03:09;7.13;;;3.00;;
15831;SDS011;8016;49.928;9.372;2023-05-29T04:05:36;5.90;;;4.00;;
15831;SDS011;8016;49.928;9.372;2023-05-29T04:08:02;4.60;;;3.30;;
15831;SDS011;8016;49.928;9.372;2023-05-29T04:10:29;3.93;;;3.40;;
15831;SDS011;8016;49.928;9.372;2023-05-29T04:12:58;5.03;;;3.07;;
15831;SDS011;8016;49.928;9.372;2023-05-29T04:15:24;4.83;;;3.23;;
15831;SDS011;8016;49.928;9.372;2023-05-29T04:17:50;5.27;;;3.70;;
15831;SDS011;8016;49.928;9.372;2023-05-29T04:20:16;5.73;;;3.70;;
15831;SDS011;8016;49.928;9.372;2023-05-29T04:22:42;5.03;;;3.47;;
15831;SDS011;8016;49.928;9.372;2023-05-29T04:25:08;5.83;;;3.40;;
15831;SDS011;8016;49.928;9.372;2023-05-29T04:27:34;4.40;;;3.30;;
15831;SDS011;8016;49.928;9.372;2023-05-29T04:30:03;7.63;;;3.47;;
15831;SDS011;8016;49.928;9.372;2023-05-29T04:32:29;4.27;;;3.63;;
15831;SDS011;8016;49.928;9.372;2023-05-29T04:34:55;7.70;;;3.77;;
15831;SDS011;8016;49.928;9.372;2023-05-29T04:37:21;4.87;;;3.80;;
15831;SDS011;8016;49.928;9.372;2023-05-29T04:39:54;6.43;;;3.30;;
15831;SDS011;8016;49.928;9.372;2023-05-29T04:42:20;4.37;;;3.10;;
15831;SDS011;8016;49.928;9.372;2023-05-29T04:44:47;4.00;;;3.10;;
15831;SDS011;8016;49.928;9.372;2023-05-29T04:47:14;5.90;;;3.20;;
15831;SDS011;8016;49.928;9.372;2023-05-29T04:49:40;4.80;;;3.33;;
15831;SDS011;8016;49.928;9.372;2023-05-29T04:52:07;4.80;;;3.70;;
15831;SDS011;8016;49.928;9.372;2023-05-29T04:54:34;6.10;;;3.63;;
15831;SDS011;8016;49.928;9.372;2023-05-29T04:57:00;5.13;;;3.07;;
15831;SDS011;8016;49.928;9.372;2023-05-29T04:59:26;4.93;;;3.73;;
15831;SDS011;8016;49.928;9.372;2023-05-29T05:01:52;3.93;;;3.00;;
15831;SDS011;8016;49.928;9.372;2023-05-29T05:04:18;6.40;;;3.90;;
15831;SDS011;8016;49.928;9.372;2023-05-29T05:06:44;5.90;;;3.53;;
15831;SDS011;8016;49.928;9.372;2023-05-29T05:09:10;4.60;;;3.47;;
15831;SDS011;8016;49.928;9.372;2023-05-29T05:11:37;5.97;;;3.00;;
15831;SDS011;8016;49.928;9.372;2023-05-29T05:14:03;4.93;;;2.90;;
15831;SDS011;8016;49.928;9.372;2023-05-29T05:16:29;3.43;;;3.10;;
15831;SDS011;8016;49.928;9.372;2023-05-29T05:18:55;5.17;;;2.90;;
15831;SDS011;8016;49.928;9.372;2023-05-29T05:21:21;4.97;;;3.37;;
15831;SDS011;8016;49.928;9.372;2023-05-29T05:23:47;6.30;;;3.10;;
15831;SDS011;8016;49.928;9.372;2023-05-29T05:26:13;5.07;;;3.10;;
15831;SDS011;8016;49.928;9.372;2023-05-29T05:28:39;3.07;;;2.77;;
15831;SDS011;8016;49.928;9.372;2023-05-29T05:31:05;6.30;;;3.20;;
15831;SDS011;8016;49.928;9.372;2023-05-29T05:33:31;3.43;;;3.00;;
15831;SDS011;8016;49.928;9.372;2023-05-29T05:35:57;7.60;;;2.90;;
15831;SDS011;8016;49.928;9.372;2023-05-29T05:38:23;3.87;;;2.93;;
15831;SDS011;8016;49.928;9.372;2023-05-29T05:40:49;4.03;;;2.90;;
15831;SDS011;8016;49.928;9.372;2023-05-29T05:43:15;3.53;;;2.60;;
15831;SDS011;8016;49.928;9.372;2023-05-29T05:45:41;3.47;;;2.77;;
15831;SDS011;8016;49.928;9.372;2023-05-29T05:48:08;4.03;;;2.73;;
15831;SDS011;8016;49.928;9.372;2023-05-29T05:50:34;4.33;;;3.07;;
15831;SDS011;8016;49.928;9.372;2023-05-29T05:53:00;6.23;;;3.03;;
15831;SDS011;8016;49.928;9.372;2023-05-29T05:55:26;3.43;;;2.73;;
15831;SDS011;8016;49.928;9.372;2023-05-29T05:57:53;3.30;;;2.80;;
15831;SDS011;8016;49.928;9.372;2023-05-29T06:00:20;4.37;;;2.50;;
15831;SDS011;8016;49.928;9.372;2023-05-29T06:02:47;6.70;;;2.60;;
15831;SDS011;8016;49.928;9.372;2023-05-29T06:05:13;2.90;;;2.53;;
15831;SDS011;8016;49.928;9.372;2023-05-29T06:07:39;4.03;;;2.67;;
15831;SDS011;8016;49.928;9.372;2023-05-29T06:10:05;4.77;;;3.10;;
15831;SDS011;8016;49.928;9.372;2023-05-29T06:12:31;6.33;;;2.70;;
15831;SDS011;8016;49.928;9.372;2023-05-29T06:14:57;5.47;;;2.80;;
15831;SDS011;8016;49.928;9.372;2023-05-29T06:17:23;4.23;;;2.67;;
15831;SDS011;8016;49.928;9.372;2023-05-29T06:19:49;3.80;;;2.73;;
15831;SDS011;8016;49.928;9.372;2023-05-29T06:22:15;5.63;;;2.33;;
15831;SDS011;8016;49.928;9.372;2023-05-29T06:24:41;3.00;;;2.70;;
15831;SDS011;8016;49.928;9.372;2023-05-29T06:27:07;4.97;;;2.70;;
15831;SDS011;8016;49.928;9.372;2023-05-29T06:29:33;3.60;;;2.33;;
15831;SDS011;8016;49.928;9.372;2023-05-29T06:31:59;4.13;;;2.50;;
15831;SDS011;8016;49.928;9.372;2023-05-29T06:34:25;5.37;;;2.60;;
15831;SDS011;8016;49.928;9.372;2023-05-29T06:36:51;4.50;;;2.83;;
15831;SDS011;8016;49.928;9.372;2023-05-29T06:39:17;4.23;;;2.53;;
15831;SDS011;8016;49.928;9.372;2023-05-29T06:41:45;3.47;;;2.83;;
15831;SDS011;8016;49.928;9.372;2023-05-29T06:44:11;5.57;;;3.03;;
15831;SDS011;8016;49.928;9.372;2023-05-29T06:46:37;3.80;;;2.67;;
15831;SDS011;8016;49.928;9.372;2023-05-29T06:49:03;4.07;;;2.30;;
15831;SDS011;8016;49.928;9.372;2023-05-29T06:51:28;4.10;;;2.73;;
15831;SDS011;8016;49.928;9.372;2023-05-29T06:53:55;4.33;;;2.30;;
15831;SDS011;8016;49.928;9.372;2023-05-29T06:56:21;4.57;;;2.77;;
15831;SDS011;8016;49.928;9.372;2023-05-29T06:58:47;4.20;;;2.53;;
15831;SDS011;8016;49.928;9.372;2023-05-29T07:01:13;2.37;;;2.07;;
15831;SDS011;8016;49.928;9.372;2023-05-29T07:03:41;5.10;;;3.03;;
15831;SDS011;8016;49.928;9.372;2023-05-29T07:06:07;3.80;;;3.00;;
15831;SDS011;8016;49.928;9.372;2023-05-29T07:08:33;6.70;;;2.73;;
15831;SDS011;8016;49.928;9.372;2023-05-29T07:11:01;6.70;;;2.60;;
15831;SDS011;8016;49.928;9.372;2023-05-29T07:13:27;5.07;;;2.53;;
15831;SDS011;8016;49.928;9.372;2023-05-29T07:15:53;4.63;;;2.77;;
15831;SDS011;8016;49.928;9.372;2023-05-29T07:18:19;3.37;;;2.43;;
15831;SDS011;8016;49.928;9.372;2023-05-29T07:20:45;2.87;;;2.40;;
15831;SDS011;8016;49.928;9.372;2023-05-29T07:23:11;4.00;;;2.57;;
15831;SDS011;8016;49.928;9.372;2023-05-29T07:25:37;3.17;;;2.77;;
15831;SDS011;8016;49.928;9.372;2023-05-29T07:28:03;4.30;;;2.80;;
15831;SDS011;8016;49.928;9.372;2023-05-29T07:30:28;4.43;;;2.30;;
15831;SDS011;8016;49.928;9.372;2023-05-29T07:32:55;2.27;;;2.07;;
15831;SDS011;8016;49.928;9.372;2023-05-29T07:35:21;3.20;;;2.50;;
15831;SDS011;8016;49.928;9.372;2023-05-29T07:37:47;3.93;;;2.60;;
15831;SDS011;8016;49.928;9.372;2023-05-29T07:40:14;4.80;;;2.90;;
15831;SDS011;8016;49.928;9.372;2023-05-29T07:42:40;4.00;;;2.77;;
15831;SDS011;8016;49.928;9.372;2023-05-29T07:45:06;4.47;;;2.60;;
15831;SDS011;8016;49.928;9.372;2023-05-29T07:47:32;3.13;;;2.50;;
15831;SDS011;8016;49.928;9.372;2023-05-29T07:49:58;3.50;;;2.47;;
15831;SDS011;8016;49.928;9.372;2023-05-29T07:52:24;3.60;;;2.60;;
15831;SDS011;8016;49.928;9.372;2023-05-29T07:54:50;8.23;;;2.40;;
15831;SDS011;8016;49.928;9.372;2023-05-29T07:57:16;3.73;;;2.53;;
15831;SDS011;8016;49.928;9.372;2023-05-29T07:59:42;4.93;;;3.00;;
15831;SDS011;8016;49.928;9.372;2023-05-29T08:02:09;4.30;;;2.50;;
15831;SDS011;8016;49.928;9.372;2023-05-29T08:04:35;3.03;;;2.43;;
15831;SDS011;8016;49.928;9.372;2023-05-29T08:07:02;6.10;;;2.40;;
15831;SDS011;8016;49.928;9.372;2023-05-29T08:09:31;4.37;;;2.60;;
15831;SDS011;8016;49.928;9.372;2023-05-29T08:11:57;5.30;;;2.57;;
15831;SDS011;8016;49.928;9.372;2023-05-29T08:14:25;4.10;;;2.53;;
15831;SDS011;8016;49.928;9.372;2023-05-29T08:16:52;4.70;;;2.70;;
15831;SDS011;8016;49.928;9.372;2023-05-29T08:19:18;7.07;;;2.80;;
15831;SDS011;8016;49.928;9.372;2023-05-29T08:21:44;3.90;;;2.57;;
15831;SDS011;8016;49.928;9.372;2023-05-29T08:24:10;4.70;;;2.60;;
15831;SDS011;8016;49.928;9.372;2023-05-29T08:26:37;4.57;;;3.17;;
15831;SDS011;8016;49.928;9.372;2023-05-29T08:29:03;3.03;;;2.43;;
15831;SDS011;8016;49.928;9.372;2023-05-29T08:31:29;4.40;;;2.77;;
15831;SDS011;8016;49.928;9.372;2023-05-29T08:33:55;5.23;;;2.83;;
15831;SDS011;8016;49.928;9.372;2023-05-29T08:36:21;4.77;;;2.33;;
15831;SDS011;8016;49.928;9.372;2023-05-29T08:38:48;3.10;;;2.63;;
15831;SDS011;8016;49.928;9.372;2023-05-29T08:41:17;5.00;;;2.53;;
15831;SDS011;8016;49.928;9.372;2023-05-29T08:43:45;5.33;;;2.63;;
15831;SDS011;8016;49.928;9.372;2023-05-29T08:46:13;5.50;;;2.80;;
15831;SDS011;8016;49.928;9.372;2023-05-29T08:48:39;3.50;;;2.30;;
15831;SDS011;8016;49.928;9.372;2023-05-29T08:51:05;5.53;;;2.80;;
15831;SDS011;8016;49.928;9.372;2023-05-29T08:53:33;3.33;;;2.60;;
15831;SDS011;8016;49.928;9.372;2023-05-29T08:55:59;4.40;;;3.10;;
15831;SDS011;8016;49.928;9.372;2023-05-29T08:58:25;5.70;;;2.83;;
15831;SDS011;8016;49.928;9.372;2023-05-29T09:00:51;4.20;;;2.40;;
15831;SDS011;8016;49.928;9.372;2023-05-29T09:03:18;3.37;;;2.67;;
15831;SDS011;8016;49.928;9.372;2023-05-29T09:05:45;4.47;;;2.73;;
15831;SDS011;8016;49.928;9.372;2023-05-29T09:08:11;5.83;;;2.50;;
15831;SDS011;8016;49.928;9.372;2023-05-29T09:10:41;4.03;;;2.70;;
15831;SDS011;8016;49.928;9.372;2023-05-29T09:13:08;4.40;;;3.43;;
15831;SDS011;8016;49.928;9.372;2023-05-29T09:15:35;3.80;;;2.53;;
15831;SDS011;8016;49.928;9.372;2023-05-29T09:18:03;2.90;;;2.40;;
15831;SDS011;8016;49.928;9.372;2023-05-29T09:20:30;5.67;;;2.70;;
15831;SDS011;8016;49.928;9.372;2023-05-29T09:22:59;3.80;;;2.53;;
15831;SDS011;8016;49.928;9.372;2023-05-29T09:25:29;3.77;;;3.10;;
15831;SDS011;8016;49.928;9.372;2023-05-29T09:28:00;4.27;;;2.63;;
15831;SDS011;8016;49.928;9.372;2023-05-29T09:30:31;3.60;;;2.67;;
15831;SDS011;8016;49.928;9.372;2023-05-29T09:32:58;3.87;;;3.20;;
15831;SDS011;8016;49.928;9.372;2023-05-29T09:35:25;4.50;;;2.90;;
15831;SDS011;8016;49.928;9.372;2023-05-29T09:37:51;5.72;;;2.92;;
15831;SDS011;8016;49.928;9.372;2023-05-29T09:40:17;3.00;;;2.70;;
15831;SDS011;8016;49.928;9.372;2023-05-29T09:42:44;3.73;;;2.43;;
15831;SDS011;8016;49.928;9.372;2023-05-29T09:45:10;5.27;;;2.67;;
15831;SDS011;8016;49.928;9.372;2023-05-29T09:47:37;4.80;;;2.70;;
15831;SDS011;8016;49.928;9.372;2023-05-29T09:50:04;5.27;;;2.47;;
15831;SDS011;8016;49.928;9.372;2023-05-29T09:52:31;7.63;;;3.03;;
15831;SDS011;8016;49.928;9.372;2023-05-29T09:54:57;4.33;;;2.93;;
15831;SDS011;8016;49.928;9.372;2023-05-29T09:57:23;4.03;;;3.03;;
15831;SDS011;8016;49.928;9.372;2023-05-29T09:59:50;3.80;;;2.87;;
15831;SDS011;8016;49.928;9.372;2023-05-29T10:02:18;4.05;;;3.20;;
15831;SDS011;8016;49.928;9.372;2023-05-29T10:04:44;4.70;;;3.03;;
15831;SDS011;8016;49.928;9.372;2023-05-29T10:07:12;7.65;;;2.95;;
15831;SDS011;8016;49.928;9.372;2023-05-29T10:09:41;4.33;;;2.70;;
15831;SDS011;8016;49.928;9.372;2023-05-29T10:12:11;5.80;;;2.90;;
15831;SDS011;8016;49.928;9.372;2023-05-29T10:14:37;4.80;;;2.92;;
15831;SDS011;8016;49.928;9.372;2023-05-29T10:17:05;6.20;;;3.00;;
15831;SDS011;8016;49.928;9.372;2023-05-29T10:19:33;4.43;;;3.07;;
15831;SDS011;8016;49.928;9.372;2023-05-29T10:22:01;4.30;;;2.73;;
15831;SDS011;8016;49.928;9.372;2023-05-29T10:24:29;4.43;;;3.00;;
15831;SDS011;8016;49.928;9.372;2023-05-29T10:26:56;6.05;;;3.28;;
15831;SDS011;8016;49.928;9.372;2023-05-29T10:34:39;5.77;;;2.63;;
15831;SDS011;8016;49.928;9.372;2023-05-29T10:37:09;4.17;;;2.83;;
15831;SDS011;8016;49.928;9.372;2023-05-29T10:39:40;5.77;;;2.60;;
15831;SDS011;8016;49.928;9.372;2023-05-29T10:44:50;3.72;;;2.58;;
15831;SDS011;8016;49.928;9.372;2023-05-29T10:47:23;4.90;;;3.07;;
15831;SDS011;8016;49.928;9.372;2023-05-29T10:49:49;6.28;;;3.30;;
15831;SDS011;8016;49.928;9.372;2023-05-29T10:52:16;5.07;;;2.60;;
15831;SDS011;8016;49.928;9.372;2023-05-29T10:54:49;4.90;;;2.80;;
15831;SDS011;8016;49.928;9.372;2023-05-29T10:57:17;6.10;;;2.85;;
15831;SDS011;8016;49.928;9.372;2023-05-29T10:59:44;4.60;;;2.57;;
15831;SDS011;8016;49.928;9.372;2023-05-29T11:02:10;3.90;;;2.67;;
15831;SDS011;8016;49.928;9.372;2023-05-29T11:04:36;4.53;;;3.13;;
15831;SDS011;8016;49.928;9.372;2023-05-29T11:07:02;4.47;;;2.73;;
15831;SDS011;8016;49.928;9.372;2023-05-29T11:09:35;6.35;;;2.72;;
15831;SDS011;8016;49.928;9.372;2023-05-29T11:15:08;4.63;;;2.80;;
15831;SDS011;8016;49.928;9.372;2023-05-29T11:20:05;4.53;;;2.60;;
15831;SDS011;8016;49.928;9.372;2023-05-29T11:25:17;2.93;;;2.67;;
15831;SDS011;8016;49.928;9.372;2023-05-29T11:27:43;4.07;;;2.67;;
15831;SDS011;8016;49.928;9.372;2023-05-29T11:30:10;5.45;;;3.22;;
15831;SDS011;8016;49.928;9.372;2023-05-29T11:32:37;5.07;;;3.13;;
15831;SDS011;8016;49.928;9.372;2023-05-29T11:35:04;4.18;;;3.13;;
15831;SDS011;8016;49.928;9.372;2023-05-29T11:37:34;3.28;;;2.95;;
15831;SDS011;8016;49.928;9.372;2023-05-29T11:40:00;3.38;;;2.55;;
15831;SDS011;8016;49.928;9.372;2023-05-29T11:42:26;4.03;;;2.80;;
15831;SDS011;8016;49.928;9.372;2023-05-29T11:44:52;2.80;;;2.47;;
15831;SDS011;8016;49.928;9.372;2023-05-29T11:47:18;3.72;;;2.90;;
15831;SDS011;8016;49.928;9.372;2023-05-29T11:49:44;5.15;;;2.70;;
15831;SDS011;8016;49.928;9.372;2023-05-29T11:52:13;3.08;;;2.60;;
15831;SDS011;8016;49.928;9.372;2023-05-29T11:54:41;3.25;;;2.67;;
15831;SDS011;8016;49.928;9.372;2023-05-29T11:57:16;3.03;;;2.47;;
15831;SDS011;8016;49.928;9.372;2023-05-29T11:59:42;4.25;;;3.00;;
15831;SDS011;8016;49.928;9.372;2023-05-29T12:02:08;4.45;;;2.58;;
15831;SDS011;8016;49.928;9.372;2023-05-29T12:04:35;7.45;;;3.00;;
15831;SDS011;8016;49.928;9.372;2023-05-29T12:07:01;3.83;;;2.63;;
15831;SDS011;8016;49.928;9.372;2023-05-29T12:09:27;5.40;;;2.53;;
15831;SDS011;8016;49.928;9.372;2023-05-29T12:12:03;2.70;;;2.38;;
15831;SDS011;8016;49.928;9.372;2023-05-29T12:14:29;5.82;;;2.95;;
15831;SDS011;8016;49.928;9.372;2023-05-29T12:16:55;5.53;;;3.13;;
15831;SDS011;8016;49.928;9.372;2023-05-29T12:19:21;3.80;;;2.78;;
15831;SDS011;8016;49.928;9.372;2023-05-29T12:21:48;5.43;;;2.67;;
15831;SDS011;8016;49.928;9.372;2023-05-29T12:24:14;4.22;;;2.70;;
15831;SDS011;8016;49.928;9.372;2023-05-29T12:26:41;5.45;;;3.10;;
15831;SDS011;8016;49.928;9.372;2023-05-29T12:29:07;5.60;;;2.45;;
15831;SDS011;8016;49.928;9.372;2023-05-29T12:31:33;5.22;;;3.20;;
15831;SDS011;8016;49.928;9.372;2023-05-29T12:34:07;3.83;;;2.92;;
15831;SDS011;8016;49.928;9.372;2023-05-29T12:36:33;3.20;;;2.83;;
15831;SDS011;8016;49.928;9.372;2023-05-29T12:38:59;3.13;;;2.47;;
15831;SDS011;8016;49.928;9.372;2023-05-29T12:41:29;3.95;;;3.05;;
15831;SDS011;8016;49.928;9.372;2023-05-29T12:43:56;5.13;;;2.90;;
15831;SDS011;8016;49.928;9.372;2023-05-29T12:46:25;4.22;;;3.05;;
15831;SDS011;8016;49.928;9.372;2023-05-29T12:48:54;4.75;;;3.00;;
15831;SDS011;8016;49.928;9.372;2023-05-29T12:51:24;4.00;;;3.03;;
15831;SDS011;8016;49.928;9.372;2023-05-29T12:53:50;4.05;;;2.67;;
15831;SDS011;8016;49.928;9.372;2023-05-29T12:56:19;4.30;;;3.05;;
15831;SDS011;8016;49.928;9.372;2023-05-29T12:58:47;4.28;;;3.00;;
15831;SDS011;8016;49.928;9.372;2023-05-29T13:01:13;3.67;;;2.88;;
15831;SDS011;8016;49.928;9.372;2023-05-29T13:03:40;4.60;;;3.22;;
15831;SDS011;8016;49.928;9.372;2023-05-29T13:06:06;4.22;;;3.08;;
15831;SDS011;8016;49.928;9.372;2023-05-29T13:08:32;4.80;;;2.92;;
15831;SDS011;8016;49.928;9.372;2023-05-29T13:10:58;6.78;;;3.28;;
15831;SDS011;8016;49.928;9.372;2023-05-29T13:13:24;5.03;;;3.22;;
15831;SDS011;8016;49.928;9.372;2023-05-29T13:15:50;5.63;;;3.60;;
15831;SDS011;8016;49.928;9.372;2023-05-29T13:18:16;5.97;;;3.50;;
15831;SDS011;8016;49.928;9.372;2023-05-29T13:20:42;3.58;;;3.25;;
15831;SDS011;8016;49.928;9.372;2023-05-29T13:23:07;5.32;;;3.28;;
15831;SDS011;8016;49.928;9.372;2023-05-29T13:25:34;6.32;;;3.17;;
15831;SDS011;8016;49.928;9.372;2023-05-29T13:28:00;5.57;;;3.05;;
15831;SDS011;8016;49.928;9.372;2023-05-29T13:30:26;4.35;;;3.20;;
15831;SDS011;8016;49.928;9.372;2023-05-29T13:32:52;3.78;;;2.70;;
15831;SDS011;8016;49.928;9.372;2023-05-29T13:35:18;4.07;;;3.08;;
15831;SDS011;8016;49.928;9.372;2023-05-29T13:37:44;4.85;;;3.53;;
15831;SDS011;8016;49.928;9.372;2023-05-29T13:40:10;4.32;;;3.05;;
15831;SDS011;8016;49.928;9.372;2023-05-29T13:42:38;3.90;;;2.88;;
15831;SDS011;8016;49.928;9.372;2023-05-29T13:45:04;3.63;;;3.15;;
15831;SDS011;8016;49.928;9.372;2023-05-29T13:47:31;4.47;;;3.20;;
15831;SDS011;8016;49.928;9.372;2023-05-29T13:49:58;5.30;;;3.20;;
15831;SDS011;8016;49.928;9.372;2023-05-29T13:52:24;3.97;;;3.47;;
15831;SDS011;8016;49.928;9.372;2023-05-29T13:54:50;4.03;;;3.38;;
15831;SDS011;8016;49.928;9.372;2023-05-29T13:57:16;4.30;;;3.40;;
15831;SDS011;8016;49.928;9.372;2023-05-29T13:59:42;3.78;;;3.38;;
15831;SDS011;8016;49.928;9.372;2023-05-29T14:02:08;5.47;;;3.20;;
15831;SDS011;8016;49.928;9.372;2023-05-29T14:04:34;4.55;;;3.25;;
15831;SDS011;8016;49.928;9.372;2023-05-29T14:07:00;5.97;;;3.80;;
15831;SDS011;8016;49.928;9.372;2023-05-29T14:09:26;3.30;;;3.00;;
15831;SDS011;8016;49.928;9.372;2023-05-29T14:11:56;5.07;;;3.55;;
15831;SDS011;8016;49.928;9.372;2023-05-29T14:14:22;4.70;;;3.22;;
15831;SDS011;8016;49.928;9.372;2023-05-29T14:16:49;5.97;;;3.40;;
15831;SDS011;8016;49.928;9.372;2023-05-29T14:19:15;5.10;;;3.45;;
15831;SDS011;8016;49.928;9.372;2023-05-29T14:21:41;4.38;;;3.42;;
15831;SDS011;8016;49.928;9.372;2023-05-29T14:24:07;5.18;;;3.45;;
15831;SDS011;8016;49.928;9.372;2023-05-29T14:26:33;4.55;;;4.13;;
15831;SDS011;8016;49.928;9.372;2023-05-29T14:29:00;4.78;;;3.28;;
15831;SDS011;8016;49.928;9.372;2023-05-29T14:31:26;6.53;;;3.28;;
15831;SDS011;8016;49.928;9.372;2023-05-29T14:33:52;5.03;;;3.45;;
15831;SDS011;8016;49.928;9.372;2023-05-29T14:36:18;4.32;;;3.30;;
15831;SDS011;8016;49.928;9.372;2023-05-29T14:38:44;5.10;;;3.35;;
15831;SDS011;8016;49.928;9.372;2023-05-29T14:41:11;4.05;;;3.58;;
15831;SDS011;8016;49.928;9.372;2023-05-29T14:43:37;4.85;;;3.70;;
15831;SDS011;8016;49.928;9.372;2023-05-29T14:46:04;7.40;;;3.65;;
15831;SDS011;8016;49.928;9.372;2023-05-29T14:48:30;4.38;;;3.33;;
15831;SDS011;8016;49.928;9.372;2023-05-29T14:50:56;5.80;;;3.50;;
15831;SDS011;8016;49.928;9.372;2023-05-29T14:53:22;4.85;;;3.20;;
15831;SDS011;8016;49.928;9.372;2023-05-29T14:55:49;4.00;;;3.63;;
15831;SDS011;8016;49.928;9.372;2023-05-29T14:58:14;3.90;;;3.50;;
15831;SDS011;8016;49.928;9.372;2023-05-29T15:00:40;7.40;;;4.05;;
15831;SDS011;8016;49.928;9.372;2023-05-29T15:03:06;3.60;;;3.30;;
15831;SDS011;8016;49.928;9.372;2023-05-29T15:05:32;5.72;;;3.97;;
15831;SDS011;8016;49.928;9.372;2023-05-29T15:07:58;5.82;;;3.53;;
15831;SDS011;8016;49.928;9.372;2023-05-29T15:10:25;3.50;;;3.03;;
15831;SDS011;8016;49.928;9.372;2023-05-29T15:12:51;4.70;;;3.55;;
15831;SDS011;8016;49.928;9.372;2023-05-29T15:15:28;7.13;;;3.80;;